createdAt,value
2023-03-11T00:01:07.710Z,0.03
2023-03-11T00:05:13.384Z,-0.00
2023-03-11T00:09:15.576Z,-0.12
2023-03-11T00:13:18.124Z,-0.07
2023-03-11T00:17:20.113Z,-0.04
2023-03-11T00:21:22.210Z,0.28
2023-03-11T00:25:26.772Z,0.59
2023-03-11T00:29:28.742Z,0.38
2023-03-11T00:33:31.383Z,0.25
2023-03-11T00:37:33.470Z,0.16
2023-03-11T00:41:35.487Z,0.11
2023-03-11T00:45:37.705Z,0.03
2023-03-11T00:49:39.751Z,-0.03
2023-03-11T00:53:42.726Z,-0.10
2023-03-11T00:57:46.656Z,-0.11
2023-03-11T01:01:49.063Z,-0.10
2023-03-11T01:05:51.138Z,-0.14
2023-03-11T01:09:53.151Z,-0.15
2023-03-11T01:13:55.187Z,-0.14
2023-03-11T01:17:57.200Z,-0.13
2023-03-11T01:21:59.280Z,-0.17
2023-03-11T01:26:01.250Z,-0.19
2023-03-11T01:30:03.945Z,-0.30
2023-03-11T01:34:06.050Z,-0.25
2023-03-11T01:38:08.355Z,-0.20
2023-03-11T01:42:10.408Z,-0.21
2023-03-11T01:46:26.593Z,-0.31
2023-03-11T01:50:34.737Z,-0.35
2023-03-11T01:54:39.577Z,-0.40
2023-03-11T01:58:44.963Z,-0.40
2023-03-11T02:02:51.826Z,-0.37
2023-03-11T02:06:57.291Z,-0.35
2023-03-11T02:11:02.230Z,-0.43
2023-03-11T02:15:06.699Z,-0.51
2023-03-11T02:19:35.936Z,-0.58
2023-03-11T02:23:53.918Z,-0.62
2023-03-11T02:27:59.737Z,-0.66
2023-03-11T02:32:07.803Z,-0.56
2023-03-11T02:36:30.862Z,-0.47
2023-03-11T02:40:52.829Z,-0.48
2023-03-11T02:45:05.714Z,-0.49
2023-03-11T02:49:09.622Z,-0.44
2023-03-11T02:53:11.706Z,-0.21
2023-03-11T02:57:13.795Z,-0.35
2023-03-11T03:01:16.641Z,-0.42
2023-03-11T03:05:21.517Z,-0.43
2023-03-11T03:09:24.166Z,-0.43
2023-03-11T03:13:27.607Z,-0.38
2023-03-11T03:17:31.382Z,-0.41
2023-03-11T03:21:34.056Z,-0.47
2023-03-11T03:25:36.596Z,-0.47
2023-03-11T03:29:42.234Z,-0.47
2023-03-11T03:33:44.685Z,-0.45
2023-03-11T03:37:46.942Z,-0.43
2023-03-11T03:41:49.116Z,-0.38
2023-03-11T03:46:17.825Z,-0.39
2023-03-11T03:50:23.004Z,-0.34
2023-03-11T03:54:27.043Z,-0.35
2023-03-11T03:58:29.660Z,-0.42
2023-03-11T04:02:31.842Z,-0.49
2023-03-11T04:06:34.781Z,-0.53
2023-03-11T04:10:39.982Z,-0.50
2023-03-11T04:14:44.103Z,-0.50
2023-03-11T04:18:46.739Z,-0.49
2023-03-11T04:22:48.947Z,-0.49
2023-03-11T04:26:52.676Z,-0.47
2023-03-11T04:30:55.325Z,-0.46
2023-03-11T04:34:57.876Z,-0.50
2023-03-11T04:39:00.290Z,-0.52
2023-03-11T04:43:06.572Z,-0.63
2023-03-11T04:47:08.690Z,-0.67
2023-03-11T04:51:11.602Z,-0.72
2023-03-11T04:55:15.172Z,-0.69
2023-03-11T04:59:18.543Z,-0.67
2023-03-11T05:03:22.173Z,-0.62
2023-03-11T05:07:24.512Z,-0.52
2023-03-11T05:11:27.073Z,-0.45
2023-03-11T05:15:31.158Z,-0.38
2023-03-11T05:19:35.820Z,-0.42
2023-03-11T05:23:45.366Z,-0.51
2023-03-11T05:27:49.178Z,-0.52
2023-03-11T05:31:52.762Z,-0.46
2023-03-11T05:35:54.923Z,-0.43
2023-03-11T05:39:57.218Z,-0.38
2023-03-11T05:43:59.402Z,-0.43
2023-03-11T05:48:01.723Z,-0.43
2023-03-11T05:52:05.191Z,-0.37
2023-03-11T05:56:08.201Z,-0.30
2023-03-11T06:00:12.192Z,-0.25
2023-03-11T06:04:20.678Z,-0.18
2023-03-11T06:08:22.961Z,-0.25
2023-03-11T06:12:25.111Z,-0.26
2023-03-11T06:16:50.047Z,-0.24
2023-03-11T06:20:57.476Z,-0.22
2023-03-11T06:24:59.556Z,-0.24
2023-03-11T06:29:01.722Z,-0.15
2023-03-11T06:33:04.212Z,-0.06
2023-03-11T06:37:06.336Z,-0.13
2023-03-11T06:41:09.143Z,-0.11
2023-03-11T06:45:11.712Z,-0.17
2023-03-11T06:49:15.635Z,-0.18
2023-03-11T06:53:18.144Z,-0.18
2023-03-11T06:57:21.572Z,-0.16
2023-03-11T07:01:28.061Z,-0.26
2023-03-11T07:05:31.954Z,-0.37
2023-03-11T07:09:39.128Z,-0.41
2023-03-11T07:13:43.281Z,-0.40
2023-03-11T07:17:45.375Z,-0.38
2023-03-11T07:21:47.803Z,-0.30
2023-03-11T07:25:51.679Z,-0.22
2023-03-11T07:29:53.730Z,-0.11
2023-03-11T07:33:58.267Z,0.07
2023-03-11T07:38:00.692Z,0.21
2023-03-11T07:42:05.497Z,0.54
2023-03-11T07:46:16.279Z,0.75
2023-03-11T07:50:19.104Z,1.10
2023-03-11T07:54:21.021Z,1.15
2023-03-11T07:58:23.042Z,1.09
2023-03-11T08:02:25.116Z,1.92
2023-03-11T08:06:31.175Z,2.20
2023-03-11T08:10:33.157Z,1.80
2023-03-11T08:14:35.255Z,1.68
2023-03-11T08:18:37.343Z,1.50
2023-03-11T08:22:45.955Z,1.18
2023-03-11T08:26:57.837Z,1.12
2023-03-11T08:31:00.526Z,1.28
2023-03-11T08:35:02.600Z,1.41
2023-03-11T08:39:04.925Z,1.59
2023-03-11T08:43:07.866Z,1.48
2023-03-11T08:47:10.289Z,1.46
2023-03-11T08:51:13.067Z,1.64
2023-03-11T08:55:18.481Z,1.94
2023-03-11T08:59:20.600Z,2.29
2023-03-11T09:03:22.903Z,2.62
2023-03-11T09:07:24.984Z,2.62
2023-03-11T09:11:27.091Z,2.51
2023-03-11T09:15:29.281Z,2.31
2023-03-11T09:19:31.292Z,2.17
2023-03-11T09:23:33.349Z,2.29
2023-03-11T09:27:35.344Z,2.74
2023-03-11T09:31:38.534Z,3.22
2023-03-11T09:35:42.089Z,3.18
2023-03-11T09:39:44.280Z,2.96
2023-03-11T09:44:11.222Z,2.64
2023-03-11T09:48:32.604Z,2.43
2023-03-11T09:52:44.823Z,2.23
2023-03-11T09:56:46.798Z,1.98
2023-03-11T10:00:49.564Z,1.93
2023-03-11T10:05:15.597Z,1.73
2023-03-11T10:09:39.581Z,1.83
2023-03-11T10:13:53.740Z,2.15
2023-03-11T10:18:04.993Z,2.44
2023-03-11T10:22:36.690Z,2.48
2023-03-11T10:26:44.768Z,2.44
2023-03-11T10:30:55.674Z,2.60
2023-03-11T10:35:06.014Z,2.70
2023-03-11T10:39:10.653Z,2.73
2023-03-11T10:43:33.525Z,3.02
2023-03-11T10:47:35.542Z,3.24
2023-03-11T10:51:37.571Z,3.29
2023-03-11T10:55:51.959Z,3.42
2023-03-11T10:59:56.933Z,3.44
2023-03-11T11:04:01.669Z,3.69
2023-03-11T11:08:11.998Z,3.58
2023-03-11T11:12:17.609Z,3.35
2023-03-11T11:16:20.863Z,3.82
2023-03-11T11:20:25.020Z,3.95
2023-03-11T11:24:31.255Z,3.82
2023-03-11T11:28:33.979Z,4.05
2023-03-11T11:32:37.285Z,4.35
2023-03-11T11:36:39.684Z,4.35
2023-03-11T11:40:41.773Z,4.57
2023-03-11T11:44:48.244Z,4.76
2023-03-11T11:49:02.506Z,4.73
2023-03-11T11:53:17.681Z,4.58
2023-03-11T11:57:21.750Z,4.47
2023-03-11T12:01:29.851Z,4.33
2023-03-11T12:05:35.587Z,4.30
2023-03-11T12:10:21.404Z,4.49
2023-03-11T12:14:46.553Z,4.75
2023-03-11T12:19:39.437Z,4.62
2023-03-11T12:24:32.383Z,4.48
2023-03-11T12:28:56.532Z,4.45
2023-03-11T12:33:09.420Z,4.59
2023-03-11T12:37:16.902Z,4.66
2023-03-11T12:41:42.666Z,4.79
2023-03-11T12:45:51.205Z,4.81
2023-03-11T12:49:55.794Z,4.54
2023-03-11T12:53:57.782Z,4.21
2023-03-11T12:58:34.736Z,4.29
2023-03-11T13:02:51.878Z,4.70
2023-03-11T13:07:03.338Z,5.28
2023-03-11T13:11:35.805Z,5.90
2023-03-11T13:15:38.287Z,5.96
2023-03-11T13:19:48.833Z,5.63
2023-03-11T13:23:51.074Z,5.24
2023-03-11T13:28:03.437Z,5.07
2023-03-11T13:32:42.722Z,5.21
2023-03-11T13:37:17.582Z,5.60
2023-03-11T13:41:26.567Z,5.83
2023-03-11T13:45:35.642Z,5.59
2023-03-11T13:49:49.307Z,5.45
2023-03-11T13:53:56.077Z,5.33
2023-03-11T13:57:58.306Z,5.23
2023-03-11T14:02:08.588Z,4.82
2023-03-11T14:06:19.478Z,4.66
2023-03-11T14:10:28.981Z,4.68
2023-03-11T14:14:42.645Z,4.68
2023-03-11T14:19:00.643Z,4.67
2023-03-11T14:23:02.787Z,4.45
2023-03-11T14:27:09.320Z,4.41
2023-03-11T14:31:24.523Z,4.61
2023-03-11T14:35:27.707Z,4.67
2023-03-11T14:39:35.056Z,4.55
2023-03-11T14:43:41.544Z,4.57
2023-03-11T14:47:55.113Z,4.67
2023-03-11T14:52:03.831Z,4.70
2023-03-11T14:56:12.809Z,4.77
2023-03-11T15:00:33.967Z,4.56
2023-03-11T15:04:39.045Z,4.36
2023-03-11T15:08:47.780Z,4.17
2023-03-11T15:12:49.902Z,4.09
2023-03-11T15:16:53.668Z,4.03
2023-03-11T15:21:06.078Z,3.98
2023-03-11T15:25:17.131Z,4.18
2023-03-11T15:29:19.138Z,4.14
2023-03-11T15:33:30.907Z,3.93
2023-03-11T15:37:34.104Z,3.68
2023-03-11T15:41:36.121Z,3.55
2023-03-11T15:45:38.131Z,3.73
2023-03-11T15:49:40.680Z,3.93
2023-03-11T15:53:42.644Z,4.07
2023-03-11T15:57:46.055Z,4.17
2023-03-11T16:01:48.059Z,4.17
2023-03-11T16:05:50.087Z,4.14
2023-03-11T16:09:52.082Z,4.23
2023-03-11T16:13:54.106Z,4.17
2023-03-11T16:17:59.121Z,3.86
2023-03-11T16:22:02.839Z,3.66
2023-03-11T16:26:05.749Z,3.58
2023-03-11T16:30:08.441Z,3.51
2023-03-11T16:34:10.562Z,3.47
2023-03-11T16:38:12.878Z,3.30
2023-03-11T16:42:22.636Z,3.14
2023-03-11T16:46:24.820Z,3.02
2023-03-11T16:50:27.691Z,2.97
2023-03-11T16:54:29.707Z,2.91
2023-03-11T16:58:31.714Z,2.84
2023-03-11T17:02:34.023Z,2.81
2023-03-11T17:06:36.053Z,2.78
2023-03-11T17:10:40.623Z,2.72
2023-03-11T17:14:42.671Z,2.66
2023-03-11T17:18:44.725Z,2.58
2023-03-11T17:22:46.826Z,2.50
2023-03-11T17:26:48.962Z,2.42
2023-03-11T17:30:50.953Z,2.30
2023-03-11T17:34:53.027Z,2.18
2023-03-11T17:38:55.386Z,2.03
2023-03-11T17:42:57.405Z,1.77
2023-03-11T17:47:00.624Z,1.43
2023-03-11T17:51:11.481Z,1.18
2023-03-11T17:55:13.525Z,1.04
2023-03-11T17:59:17.612Z,0.99
2023-03-11T18:03:19.989Z,1.01
2023-03-11T18:07:23.534Z,0.91
2023-03-11T18:11:28.027Z,0.86
2023-03-11T18:15:30.030Z,0.70
2023-03-11T18:19:32.030Z,0.68
2023-03-11T18:23:35.466Z,0.66
2023-03-11T18:27:38.122Z,0.69
2023-03-11T18:31:40.188Z,0.63
2023-03-11T18:35:42.349Z,0.64
2023-03-11T18:39:44.424Z,0.68
2023-03-11T18:43:46.591Z,0.47
2023-03-11T18:47:48.821Z,0.39
2023-03-11T18:51:50.833Z,0.27
2023-03-11T18:55:59.388Z,0.04
2023-03-11T19:00:01.451Z,-0.11
2023-03-11T19:04:03.462Z,-0.16
2023-03-11T19:08:05.722Z,-0.20
2023-03-11T19:12:07.938Z,-0.23
2023-03-11T19:16:11.947Z,-0.26
2023-03-11T19:20:13.951Z,-0.35
2023-03-11T19:24:15.991Z,-0.39
2023-03-11T19:28:18.952Z,-0.33
2023-03-11T19:32:21.001Z,-0.43
2023-03-11T19:36:23.087Z,-0.50
2023-03-11T19:40:29.624Z,-0.57
2023-03-11T19:44:31.619Z,-0.62
2023-03-11T19:48:34.075Z,-0.64
2023-03-11T19:52:36.228Z,-0.72
2023-03-11T19:56:38.334Z,-0.78
2023-03-11T20:00:41.949Z,-0.79
2023-03-11T20:04:44.047Z,-0.77
2023-03-11T20:08:46.625Z,-0.92
2023-03-11T20:13:01.513Z,-1.03
2023-03-11T20:17:03.997Z,-1.06
2023-03-11T20:21:08.777Z,-1.07
2023-03-11T20:25:10.828Z,-1.14
2023-03-11T20:29:12.884Z,-1.21
2023-03-11T20:33:14.988Z,-1.22
2023-03-11T20:37:17.137Z,-1.21
2023-03-11T20:41:19.748Z,-1.25
2023-03-11T20:45:22.263Z,-1.26
2023-03-11T20:49:24.500Z,-1.37
2023-03-11T20:53:26.917Z,-1.35
2023-03-11T20:57:29.647Z,-1.32
2023-03-11T21:01:33.171Z,-1.33
2023-03-11T21:05:37.014Z,-1.58
2023-03-11T21:09:39.063Z,-1.82
2023-03-11T21:13:41.663Z,-1.85
2023-03-11T21:17:43.680Z,-1.79
2023-03-11T21:21:45.796Z,-1.79
2023-03-11T21:25:47.840Z,-1.85
2023-03-11T21:29:50.063Z,-2.02
2023-03-11T21:33:54.209Z,-1.95
2023-03-11T21:37:56.293Z,-1.87
2023-03-11T21:41:58.640Z,-1.95
2023-03-11T21:46:00.898Z,-2.06
2023-03-11T21:50:04.169Z,-2.05
2023-03-11T21:54:06.413Z,-2.15
2023-03-11T21:58:09.049Z,-2.20
2023-03-11T22:02:14.704Z,-2.25
2023-03-11T22:06:16.824Z,-2.42
2023-03-11T22:10:19.700Z,-2.47
2023-03-11T22:14:22.271Z,-2.31
2023-03-11T22:18:24.538Z,-2.27
2023-03-11T22:22:26.834Z,-2.39
2023-03-11T22:26:28.841Z,-2.60
2023-03-11T22:30:31.015Z,-2.78
2023-03-11T22:34:33.038Z,-2.71
2023-03-11T22:38:36.751Z,-2.64
2023-03-11T22:42:39.372Z,-2.60
2023-03-11T22:46:41.398Z,-2.57
2023-03-11T22:50:44.445Z,-2.64
2023-03-11T22:54:46.564Z,-2.68
2023-03-11T22:58:48.712Z,-2.70
2023-03-11T23:02:55.744Z,-2.58
2023-03-11T23:06:58.103Z,-2.55
2023-03-11T23:11:05.563Z,-2.49
2023-03-11T23:15:12.410Z,-2.55
2023-03-11T23:19:14.410Z,-2.69
2023-03-11T23:23:16.353Z,-2.66
2023-03-11T23:27:18.680Z,-2.71
2023-03-11T23:31:24.124Z,-2.62
2023-03-11T23:35:26.266Z,-2.59
2023-03-11T23:39:28.403Z,-2.77
2023-03-11T23:43:30.479Z,-2.76
2023-03-11T23:47:32.708Z,-2.75
2023-03-11T23:51:34.760Z,-2.74
2023-03-11T23:55:37.978Z,-2.62
2023-03-11T23:59:39.995Z,-2.61
